This is the latest recevied weather packets stored in our database for station/object AI9F. If no packets are shown the sender has not sent any weather packets the latest 10 day(s).
| Time | Temp. | Humidity | Pressure | Rain* | Wind** | Luminosity | Snow |
|---|---|---|---|---|---|---|---|
| 1777954264 | 20.56° C | 53% | 1004.9 hPa | 0 mm | - | 0 W/m² | - |
| 1777953961 | 20.56° C | 52% | 1005 hPa | 0 mm | - | 0 W/m² | - |
| 1777953659 | 20.56° C | 54% | 1005.3 hPa | 0 mm | - | 0 W/m² | - |
| 1777943656 | 22.22° C | 45% | 1005.2 hPa | 0 mm | - | 0 W/m² | - |
| 1777943049 | 22.22° C | 45% | 1005 hPa | 0 mm | - | 0 W/m² | - |
| 1777942442 | 22.22° C | 44% | 1004.7 hPa | 0 mm | - | 0 W/m² | - |
| 1777941533 | 22.22° C | 45% | 1003.9 hPa | 0 mm | - | 1 W/m² | - |
| 1777941230 | 22.78° C | 43% | 1004.3 hPa | 0 mm | - | 2 W/m² | - |
| 1777940926 | 22.78° C | 43% | 1004 hPa | 0 mm | - | 4 W/m² | - |
| 1777940623 | 22.78° C | 43% | 1003.9 hPa | 0 mm | - | 6 W/m² | - |
| 1777940321 | 22.78° C | 42% | 1003.9 hPa | 0 mm | - | 9 W/m² | - |
| 1777940018 | 22.78° C | 42% | 1003.7 hPa | 0 mm | - | 12 W/m² | - |
| 1777939413 | 22.78° C | 42% | 1003.7 hPa | 0 mm | - | 12 W/m² | - |
| 1777937593 | 24.44° C | 38% | 1003.8 hPa | 0 mm | - | 89 W/m² | - |
| 1777934259 | 25° C | 38% | 1003.2 hPa | 0 mm | - | 239 W/m² | - |
| 1777933955 | 24.44° C | 36% | 1003.1 hPa | 0 mm | - | 256 W/m² | - |
| 1777933047 | 23.33° C | 43% | 1003.7 hPa | 0 mm | - | 206 W/m² | - |
| 1777932744 | 23.33° C | 41% | 1003.8 hPa | 0 mm | - | 113 W/m² | - |
| 1777932440 | 23.33° C | 42% | 1003.9 hPa | 0 mm | - | 118 W/m² | - |
| 1777932138 | 23.89° C | 42% | 1004 hPa | 0 mm | - | 125 W/m² | - |
| 1777931834 | 23.89° C | 41% | 1004.2 hPa | 0 mm | - | 141 W/m² | - |
| 1777931227 | 24.44° C | 40% | 1004.3 hPa | 0 mm | - | 134 W/m² | - |
| 1777930013 | 22.22° C | 47% | 1004.2 hPa | 0 mm | - | 72 W/m² | - |
| 1777929408 | 21.67° C | 48% | 1004.8 hPa | 0 mm | - | 82 W/m² | - |
| 1777929104 | 21.67° C | 51% | 1004.8 hPa | 0 mm | - | 74 W/m² | - |
* Rain latest hour (hover to see other rain measurements)
** Current wind speed in m/s (hover to see current wind gust speed)